createdAt,value
2018-06-03T00:00:54.019Z,8.50
2018-06-03T00:03:22.862Z,9.03
2018-06-03T00:05:51.719Z,9.93
2018-06-03T00:08:20.579Z,7.22
2018-06-03T00:10:49.406Z,11.23
2018-06-03T00:13:18.279Z,8.13
2018-06-03T00:15:47.147Z,8.60
2018-06-03T00:18:15.978Z,8.55
2018-06-03T00:20:50.720Z,9.27
2018-06-03T00:23:19.587Z,7.80
2018-06-03T00:25:48.416Z,9.75
2018-06-03T00:28:17.238Z,10.13
2018-06-03T00:30:46.085Z,8.93
2018-06-03T00:33:14.914Z,8.57
2018-06-03T00:35:49.684Z,10.90
2018-06-03T00:38:18.535Z,9.25
2018-06-03T00:40:47.359Z,6.43
2018-06-03T00:43:16.202Z,9.50
2018-06-03T00:45:45.061Z,9.05
2018-06-03T00:48:13.916Z,8.82
2018-06-03T00:50:42.778Z,11.55
2018-06-03T00:53:11.605Z,8.93
2018-06-03T00:55:40.465Z,7.15
2018-06-03T00:58:09.310Z,8.65
2018-06-03T01:00:38.145Z,11.68
2018-06-03T01:03:07.008Z,10.63
2018-06-03T01:05:35.863Z,11.38
2018-06-03T01:08:04.696Z,10.90
2018-06-03T01:10:33.556Z,9.85
2018-06-03T01:13:02.399Z,10.10
2018-06-03T01:15:31.239Z,9.40
2018-06-03T01:18:00.068Z,10.07
2018-06-03T01:20:28.930Z,9.95
2018-06-03T01:22:57.774Z,8.65
2018-06-03T01:25:26.646Z,7.63
2018-06-03T01:27:55.503Z,11.18
2018-06-03T01:30:24.335Z,9.37
2018-06-03T01:32:53.188Z,7.80
2018-06-03T01:35:22.067Z,8.57
2018-06-03T01:37:50.907Z,9.55
2018-06-03T01:40:19.746Z,8.63
2018-06-03T01:42:48.571Z,9.55
2018-06-03T01:45:17.408Z,8.97
2018-06-03T01:47:46.248Z,6.90
2018-06-03T01:50:15.067Z,9.50
2018-06-03T01:52:43.936Z,8.85
2018-06-03T01:55:12.783Z,10.30
2018-06-03T01:57:41.611Z,8.48
2018-06-03T02:00:10.441Z,12.90
2018-06-03T02:02:39.311Z,8.02
2018-06-03T02:05:08.130Z,7.43
2018-06-03T02:07:36.980Z,7.68
2018-06-03T02:10:05.837Z,9.00
2018-06-03T02:12:34.662Z,11.73
2018-06-03T02:15:03.498Z,9.77
2018-06-03T02:17:32.327Z,8.65
2018-06-03T02:20:01.170Z,10.30
2018-06-03T02:22:30.015Z,10.65
2018-06-03T02:24:58.839Z,9.23
2018-06-03T02:27:27.693Z,8.60
2018-06-03T02:29:56.586Z,11.33
2018-06-03T02:32:25.412Z,8.85
2018-06-03T02:34:54.262Z,10.67
2018-06-03T02:37:23.114Z,10.43
2018-06-03T02:39:51.940Z,11.35
2018-06-03T02:42:20.792Z,9.38
2018-06-03T02:44:49.664Z,9.05
2018-06-03T02:47:18.503Z,11.55
2018-06-03T02:49:47.392Z,12.37
2018-06-03T02:52:16.239Z,11.20
2018-06-03T02:54:45.080Z,10.52
2018-06-03T02:57:13.919Z,9.70
2018-06-03T02:59:42.743Z,8.75
2018-06-03T03:02:11.639Z,10.70
2018-06-03T03:04:40.492Z,10.50
2018-06-03T03:07:09.335Z,16.00
2018-06-03T03:09:38.185Z,14.15
2018-06-03T03:12:07.036Z,10.10
2018-06-03T03:14:35.892Z,12.20
2018-06-03T03:17:04.723Z,10.87
2018-06-03T03:19:33.555Z,12.80
2018-06-03T03:22:02.433Z,10.27
2018-06-03T03:24:31.258Z,10.90
2018-06-03T03:27:00.215Z,11.60
2018-06-03T03:29:29.051Z,10.95
2018-06-03T03:31:57.907Z,10.15
2018-06-03T03:34:26.779Z,11.48
2018-06-03T03:36:55.607Z,11.25
2018-06-03T03:39:24.847Z,10.90
2018-06-03T03:41:53.675Z,12.07
2018-06-03T03:44:22.522Z,16.00
2018-06-03T03:46:51.392Z,11.75
2018-06-03T03:49:20.222Z,12.85
2018-06-03T03:51:49.063Z,13.00
2018-06-03T03:54:17.919Z,11.90
2018-06-03T03:56:46.778Z,14.17
2018-06-03T03:59:15.615Z,13.50
2018-06-03T04:01:44.454Z,14.67
2018-06-03T04:04:13.368Z,12.32
2018-06-03T04:06:42.235Z,12.57
2018-06-03T04:09:11.067Z,13.30
2018-06-03T04:11:39.899Z,13.52
2018-06-03T04:14:08.754Z,14.45
2018-06-03T04:16:37.592Z,14.35
2018-06-03T04:19:06.431Z,12.43
2018-06-03T04:21:35.282Z,10.85
2018-06-03T04:24:04.154Z,13.00
2018-06-03T04:26:33.076Z,13.20
2018-06-03T04:29:01.927Z,16.40
2018-06-03T04:31:30.795Z,14.73
2018-06-03T04:33:59.639Z,14.90
2018-06-03T04:36:28.498Z,13.50
2018-06-03T04:38:57.327Z,10.93
2018-06-03T04:41:26.175Z,13.25
2018-06-03T04:43:55.104Z,11.65
2018-06-03T04:46:23.959Z,12.43
2018-06-03T04:48:52.824Z,12.18
2018-06-03T04:51:21.659Z,13.75
2018-06-03T04:53:50.507Z,11.50
2018-06-03T04:56:19.367Z,16.10
2018-06-03T04:58:48.203Z,15.35
2018-06-03T05:01:17.068Z,16.03
2018-06-03T05:03:45.922Z,13.95
2018-06-03T05:06:14.787Z,15.60
2018-06-03T05:08:43.623Z,12.73
2018-06-03T05:11:12.474Z,16.73
2018-06-03T05:13:41.342Z,17.55
2018-06-03T05:16:10.174Z,13.95
2018-06-03T05:18:39.035Z,15.70
2018-06-03T05:21:07.882Z,16.75
2018-06-03T05:23:36.739Z,13.48
2018-06-03T05:26:05.581Z,14.10
2018-06-03T05:28:34.467Z,16.60
2018-06-03T05:31:03.295Z,18.55
2018-06-03T05:33:32.130Z,16.67
2018-06-03T05:36:00.985Z,18.80
2018-06-03T05:38:29.886Z,15.63
2018-06-03T05:40:58.722Z,17.17
2018-06-03T05:43:27.556Z,18.13
2018-06-03T05:45:56.433Z,16.87
2018-06-03T05:48:25.310Z,21.02
2018-06-03T05:50:54.138Z,20.27
2018-06-03T05:53:22.971Z,22.15
2018-06-03T05:55:51.881Z,26.80
2018-06-03T05:58:20.687Z,24.10
2018-06-03T06:00:49.531Z,23.25
2018-06-03T06:03:18.378Z,29.35
2018-06-03T06:05:47.234Z,26.58
2018-06-03T06:08:16.057Z,25.85
2018-06-03T06:10:44.918Z,27.33
2018-06-03T06:13:13.754Z,37.50
2018-06-03T06:15:42.587Z,25.42
2018-06-03T06:18:11.442Z,26.83
2018-06-03T06:20:40.298Z,23.08
2018-06-03T06:23:09.136Z,20.80
2018-06-03T06:25:38.004Z,21.42
2018-06-03T06:28:06.831Z,24.58
2018-06-03T06:30:35.699Z,19.95
2018-06-03T06:33:04.555Z,23.05
2018-06-03T06:35:33.414Z,21.52
2018-06-03T06:38:02.283Z,19.92
2018-06-03T06:40:31.130Z,26.15
2018-06-03T06:43:00.002Z,22.83
2018-06-03T06:45:28.875Z,17.62
2018-06-03T06:47:57.718Z,21.00
2018-06-03T06:50:26.597Z,20.17
2018-06-03T06:52:55.443Z,26.08
2018-06-03T06:55:24.331Z,27.23
2018-06-03T06:57:53.164Z,25.58
2018-06-03T07:00:22.021Z,16.85
2018-06-03T07:02:50.867Z,20.73
2018-06-03T07:05:19.733Z,26.35
2018-06-03T07:07:48.568Z,22.52
2018-06-03T07:10:17.439Z,22.60
2018-06-03T07:12:46.279Z,28.60
2018-06-03T07:15:15.140Z,24.00
2018-06-03T07:17:43.997Z,24.33
2018-06-03T07:20:12.868Z,19.75
2018-06-03T07:22:41.711Z,23.52
2018-06-03T07:25:10.639Z,27.27
2018-06-03T07:27:39.495Z,25.92
2018-06-03T07:30:08.367Z,21.37
2018-06-03T07:32:37.205Z,22.98
2018-06-03T07:35:06.071Z,26.02
2018-06-03T07:37:34.907Z,26.67
2018-06-03T07:40:03.794Z,22.27
2018-06-03T07:42:32.647Z,22.65
2018-06-03T07:45:01.492Z,23.35
2018-06-03T07:47:30.351Z,22.13
2018-06-03T07:49:59.194Z,23.65
2018-06-03T07:52:28.051Z,25.58
2018-06-03T07:54:56.952Z,19.80
2018-06-03T07:57:25.785Z,26.62
2018-06-03T07:59:54.654Z,24.60
2018-06-03T08:02:23.605Z,22.80
2018-06-03T08:04:52.485Z,20.37
2018-06-03T08:07:21.746Z,29.10
2018-06-03T08:09:50.183Z,23.40
2018-06-03T08:12:19.040Z,28.13
2018-06-03T08:14:47.871Z,21.85
2018-06-03T08:17:16.740Z,25.53
2018-06-03T08:19:45.568Z,27.65
2018-06-03T08:22:14.464Z,28.00
2018-06-03T08:24:43.295Z,30.80
2018-06-03T08:27:12.151Z,29.60
2018-06-03T08:29:40.998Z,25.53
2018-06-03T08:32:09.852Z,32.50
2018-06-03T08:34:38.726Z,27.30
2018-06-03T08:37:07.555Z,35.92
2018-06-03T08:39:36.415Z,33.08
2018-06-03T09:19:11.661Z,31.87
2018-06-03T09:21:40.483Z,20.87
2018-06-03T09:29:06.127Z,34.10
2018-06-03T09:31:34.986Z,30.35
2018-06-03T09:34:03.865Z,27.90
2018-06-03T09:36:32.694Z,27.58
2018-06-03T09:39:01.533Z,26.10
2018-06-03T09:41:30.393Z,23.75
2018-06-03T09:43:59.223Z,35.42
2018-06-03T09:46:28.075Z,28.60
2018-06-03T09:48:56.927Z,24.45
2018-06-03T09:51:25.776Z,27.77
2018-06-03T09:53:54.622Z,26.37
2018-06-03T09:56:23.483Z,25.67
2018-06-03T09:58:52.327Z,24.92
2018-06-03T10:01:21.187Z,24.83
2018-06-03T10:03:50.043Z,25.37
2018-06-03T10:06:18.919Z,24.87
2018-06-03T10:08:47.824Z,24.83
2018-06-03T10:11:16.839Z,27.45
2018-06-03T10:13:45.736Z,32.90
2018-06-03T10:16:14.585Z,30.48
2018-06-03T10:18:43.438Z,27.30
2018-06-03T10:21:12.367Z,29.58
2018-06-03T10:23:41.281Z,30.12
2018-06-03T10:26:10.216Z,25.83
2018-06-03T10:28:39.083Z,28.47
2018-06-03T10:31:07.919Z,29.98
2018-06-03T10:33:36.782Z,30.15
2018-06-03T10:36:05.648Z,28.45
2018-06-03T10:38:34.482Z,31.50
2018-06-03T10:41:03.358Z,22.83
2018-06-03T10:43:32.215Z,29.08
2018-06-03T10:46:01.043Z,30.92
2018-06-03T10:48:29.907Z,26.85
2018-06-03T10:50:58.780Z,28.20
2018-06-03T10:53:27.611Z,25.27
2018-06-03T10:55:56.447Z,25.60
2018-06-03T10:58:25.316Z,30.48
2018-06-03T11:00:54.155Z,31.80
2018-06-03T11:03:22.994Z,29.17
2018-06-03T11:05:51.850Z,24.83
2018-06-03T11:08:20.706Z,23.67
2018-06-03T11:10:49.556Z,26.37
2018-06-03T11:13:18.421Z,26.45
2018-06-03T11:15:47.307Z,24.77
2018-06-03T11:18:16.200Z,21.62
2018-06-03T11:20:45.060Z,20.42
2018-06-03T11:23:13.910Z,23.02
2018-06-03T11:25:42.743Z,23.65
2018-06-03T11:28:11.624Z,19.00
2018-06-03T11:30:40.477Z,21.87
2018-06-03T11:33:09.345Z,22.10
2018-06-03T11:35:38.227Z,22.77
2018-06-03T11:38:07.074Z,24.80
2018-06-03T11:40:35.939Z,18.80
2018-06-03T11:43:04.782Z,22.98
2018-06-03T11:45:33.648Z,16.98
2018-06-03T11:48:02.494Z,18.00
2018-06-03T11:50:31.331Z,20.25
2018-06-03T11:53:00.266Z,17.17
2018-06-03T11:55:29.129Z,17.23
2018-06-03T11:57:58.754Z,19.23
2018-06-03T12:00:27.587Z,19.15
2018-06-03T12:02:56.442Z,17.45
2018-06-03T12:05:25.293Z,20.25
2018-06-03T12:07:54.157Z,20.92
2018-06-03T12:10:23.035Z,16.73
2018-06-03T12:12:51.870Z,18.17
2018-06-03T12:15:20.707Z,17.43
2018-06-03T12:17:49.570Z,17.85
2018-06-03T12:20:18.450Z,18.02
2018-06-03T12:22:47.277Z,27.80
2018-06-03T12:25:16.136Z,17.08
2018-06-03T12:27:44.955Z,14.90
2018-06-03T12:30:13.876Z,14.55
2018-06-03T12:32:42.738Z,13.40
2018-06-03T12:35:11.611Z,15.32
2018-06-03T12:37:40.446Z,14.95
2018-06-03T12:40:09.325Z,14.10
2018-06-03T12:42:38.159Z,12.95
2018-06-03T12:45:07.026Z,13.80
2018-06-03T12:47:35.864Z,14.38
2018-06-03T12:50:04.738Z,13.05
2018-06-03T12:52:33.611Z,12.30
2018-06-03T12:55:02.503Z,13.10
2018-06-03T12:57:31.334Z,11.40
2018-06-03T13:00:00.236Z,12.30
2018-06-03T13:02:29.067Z,13.13
2018-06-03T13:04:57.922Z,12.60
2018-06-03T13:07:26.775Z,18.45
2018-06-03T13:09:55.622Z,11.68
2018-06-03T13:12:24.495Z,11.90
2018-06-03T13:14:53.663Z,15.10
2018-06-03T13:17:22.560Z,10.93
2018-06-03T13:19:51.359Z,17.83
2018-06-03T13:22:20.210Z,11.10
2018-06-03T13:24:49.036Z,15.80
2018-06-03T13:27:17.891Z,13.73
2018-06-03T13:29:46.739Z,11.23
2018-06-03T13:32:15.585Z,12.52
2018-06-03T13:34:44.480Z,11.70
2018-06-03T13:37:13.328Z,11.27
2018-06-03T13:39:42.155Z,12.25
2018-06-03T13:42:11.007Z,11.30
2018-06-03T13:44:45.754Z,11.40
2018-06-03T13:47:14.591Z,8.98
2018-06-03T13:49:43.446Z,10.53
2018-06-03T13:52:12.298Z,14.20
2018-06-03T13:54:41.138Z,13.82
2018-06-03T13:57:10.003Z,11.02
2018-06-03T13:59:38.835Z,11.82
2018-06-03T14:02:07.685Z,13.60
2018-06-03T17:32:03.775Z,14.13
2018-06-03T21:50:17.926Z,22.43
2018-06-03T21:52:46.375Z,37.60
2018-06-03T21:55:14.790Z,11.07
2018-06-03T21:57:43.332Z,23.73
2018-06-03T22:00:11.767Z,16.00
2018-06-03T22:02:40.154Z,10.82
2018-06-03T22:05:08.678Z,13.60
2018-06-03T22:07:37.046Z,8.73
2018-06-03T22:10:05.540Z,13.95
2018-06-03T22:12:34.110Z,11.20
2018-06-03T22:15:02.609Z,14.63
2018-06-03T22:17:31.067Z,10.38
2018-06-03T22:19:59.691Z,13.18
2018-06-03T22:22:28.152Z,11.67
2018-06-03T22:24:56.646Z,12.10
2018-06-03T22:27:25.333Z,10.08
2018-06-03T22:29:53.808Z,11.10
2018-06-03T22:32:22.246Z,11.28
2018-06-03T22:34:50.650Z,16.20
2018-06-03T22:37:19.347Z,12.05
2018-06-03T22:39:47.817Z,9.90
2018-06-03T22:42:16.295Z,9.37
2018-06-03T22:44:44.817Z,8.67
2018-06-03T22:47:13.350Z,9.03
2018-06-03T22:49:41.887Z,13.00
2018-06-03T22:52:10.335Z,13.00
2018-06-03T22:54:38.798Z,10.88
2018-06-03T22:57:14.251Z,10.25
2018-06-03T22:59:42.641Z,9.93
2018-06-03T23:02:11.098Z,11.00
2018-06-03T23:04:39.716Z,12.80
2018-06-03T23:07:08.288Z,9.38
2018-06-03T23:09:36.678Z,10.67
2018-06-03T23:12:05.099Z,10.47
2018-06-03T23:14:33.634Z,9.63
2018-06-03T23:17:02.166Z,10.63
2018-06-03T23:19:30.610Z,11.73
2018-06-03T23:21:59.151Z,10.72
2018-06-03T23:24:27.626Z,16.65
2018-06-03T23:26:56.134Z,10.15
2018-06-03T23:29:24.729Z,11.88
2018-06-03T23:31:53.175Z,10.50
2018-06-03T23:34:21.670Z,12.73
2018-06-03T23:36:50.203Z,9.13
2018-06-03T23:39:18.742Z,11.75
2018-06-03T23:41:47.202Z,10.55
2018-06-03T23:44:15.715Z,9.78
2018-06-03T23:46:44.172Z,11.33
2018-06-03T23:49:12.742Z,10.23
2018-06-03T23:51:41.123Z,8.83
2018-06-03T23:54:09.539Z,10.93
2018-06-03T23:56:37.991Z,11.65
2018-06-03T23:59:06.423Z,11.35
